sensor_id;sensor_type;location;lat;lon;timestamp;P1;durP1;ratioP1;P2;durP2;ratioP2
43042;SDS011;28667;50.758;6.096;2023-05-14T00:01:58;5.13;;;2.78;;
43042;SDS011;28667;50.758;6.096;2023-05-14T00:04:24;4.28;;;2.65;;
43042;SDS011;28667;50.758;6.096;2023-05-14T00:06:50;9.05;;;2.80;;
43042;SDS011;28667;50.758;6.096;2023-05-14T00:09:15;2.80;;;2.42;;
43042;SDS011;28667;50.758;6.096;2023-05-14T00:11:41;4.47;;;2.53;;
43042;SDS011;28667;50.758;6.096;2023-05-14T00:14:07;3.63;;;2.67;;
43042;SDS011;28667;50.758;6.096;2023-05-14T00:16:32;3.25;;;2.60;;
43042;SDS011;28667;50.758;6.096;2023-05-14T00:18:58;2.90;;;2.70;;
43042;SDS011;28667;50.758;6.096;2023-05-14T00:21:24;3.22;;;2.67;;
43042;SDS011;28667;50.758;6.096;2023-05-14T00:23:49;3.47;;;2.67;;
43042;SDS011;28667;50.758;6.096;2023-05-14T00:26:15;4.40;;;2.83;;
43042;SDS011;28667;50.758;6.096;2023-05-14T00:28:43;4.13;;;2.70;;
43042;SDS011;28667;50.758;6.096;2023-05-14T00:31:09;2.88;;;2.65;;
43042;SDS011;28667;50.758;6.096;2023-05-14T00:33:35;4.43;;;3.20;;
43042;SDS011;28667;50.758;6.096;2023-05-14T00:36:01;3.63;;;3.08;;
43042;SDS011;28667;50.758;6.096;2023-05-14T00:38:27;3.00;;;2.70;;
43042;SDS011;28667;50.758;6.096;2023-05-14T00:40:53;8.98;;;3.10;;
43042;SDS011;28667;50.758;6.096;2023-05-14T00:43:19;2.60;;;2.40;;
43042;SDS011;28667;50.758;6.096;2023-05-14T00:45:49;3.78;;;2.67;;
43042;SDS011;28667;50.758;6.096;2023-05-14T00:48:17;3.42;;;2.55;;
43042;SDS011;28667;50.758;6.096;2023-05-14T00:50:45;3.05;;;2.60;;
43042;SDS011;28667;50.758;6.096;2023-05-14T00:53:11;4.18;;;2.33;;
43042;SDS011;28667;50.758;6.096;2023-05-14T00:55:37;3.35;;;2.95;;
43042;SDS011;28667;50.758;6.096;2023-05-14T00:58:08;3.50;;;3.03;;
43042;SDS011;28667;50.758;6.096;2023-05-14T01:00:35;4.05;;;3.40;;
43042;SDS011;28667;50.758;6.096;2023-05-14T01:03:02;4.72;;;2.70;;
43042;SDS011;28667;50.758;6.096;2023-05-14T01:05:32;3.10;;;2.80;;
43042;SDS011;28667;50.758;6.096;2023-05-14T01:10:50;6.95;;;3.00;;
43042;SDS011;28667;50.758;6.096;2023-05-14T01:16:10;3.33;;;2.63;;
43042;SDS011;28667;50.758;6.096;2023-05-14T01:18:38;3.50;;;2.92;;
43042;SDS011;28667;50.758;6.096;2023-05-14T01:23:59;3.50;;;3.08;;
43042;SDS011;28667;50.758;6.096;2023-05-14T01:26:24;4.78;;;3.03;;
43042;SDS011;28667;50.758;6.096;2023-05-14T01:28:50;3.13;;;2.92;;
43042;SDS011;28667;50.758;6.096;2023-05-14T01:31:19;3.65;;;3.05;;
43042;SDS011;28667;50.758;6.096;2023-05-14T01:33:52;3.72;;;2.80;;
43042;SDS011;28667;50.758;6.096;2023-05-14T01:36:20;5.38;;;3.05;;
43042;SDS011;28667;50.758;6.096;2023-05-14T01:38:47;3.00;;;2.70;;
43042;SDS011;28667;50.758;6.096;2023-05-14T01:41:15;3.40;;;3.10;;
43042;SDS011;28667;50.758;6.096;2023-05-14T01:43:42;4.45;;;3.40;;
43042;SDS011;28667;50.758;6.096;2023-05-14T01:46:09;3.72;;;3.10;;
43042;SDS011;28667;50.758;6.096;2023-05-14T01:48:34;4.40;;;3.20;;
43042;SDS011;28667;50.758;6.096;2023-05-14T01:51:02;3.75;;;2.78;;
43042;SDS011;28667;50.758;6.096;2023-05-14T01:53:28;3.22;;;2.78;;
43042;SDS011;28667;50.758;6.096;2023-05-14T01:55:53;3.00;;;2.80;;
43042;SDS011;28667;50.758;6.096;2023-05-14T01:58:19;5.65;;;3.28;;
43042;SDS011;28667;50.758;6.096;2023-05-14T02:00:45;7.53;;;3.28;;
43042;SDS011;28667;50.758;6.096;2023-05-14T02:03:11;3.65;;;3.05;;
43042;SDS011;28667;50.758;6.096;2023-05-14T02:05:37;3.58;;;3.28;;
43042;SDS011;28667;50.758;6.096;2023-05-14T02:08:02;5.32;;;3.25;;
43042;SDS011;28667;50.758;6.096;2023-05-14T02:10:28;4.03;;;3.10;;
43042;SDS011;28667;50.758;6.096;2023-05-14T02:12:54;4.53;;;3.67;;
43042;SDS011;28667;50.758;6.096;2023-05-14T02:15:20;4.60;;;3.05;;
43042;SDS011;28667;50.758;6.096;2023-05-14T02:17:46;4.05;;;3.10;;
43042;SDS011;28667;50.758;6.096;2023-05-14T02:20:11;6.22;;;3.08;;
43042;SDS011;28667;50.758;6.096;2023-05-14T02:22:37;3.67;;;3.10;;
43042;SDS011;28667;50.758;6.096;2023-05-14T02:25:06;2.80;;;2.40;;
43042;SDS011;28667;50.758;6.096;2023-05-14T02:27:33;7.30;;;3.30;;
43042;SDS011;28667;50.758;6.096;2023-05-14T02:29:58;3.35;;;3.05;;
43042;SDS011;28667;50.758;6.096;2023-05-14T02:32:25;3.90;;;3.50;;
43042;SDS011;28667;50.758;6.096;2023-05-14T02:34:51;4.70;;;3.83;;
43042;SDS011;28667;50.758;6.096;2023-05-14T02:37:17;3.92;;;3.20;;
43042;SDS011;28667;50.758;6.096;2023-05-14T02:39:43;4.00;;;3.63;;
43042;SDS011;28667;50.758;6.096;2023-05-14T02:42:08;5.28;;;3.53;;
43042;SDS011;28667;50.758;6.096;2023-05-14T02:44:34;5.47;;;4.00;;
43042;SDS011;28667;50.758;6.096;2023-05-14T02:47:00;4.00;;;3.60;;
43042;SDS011;28667;50.758;6.096;2023-05-14T02:49:26;4.18;;;3.15;;
43042;SDS011;28667;50.758;6.096;2023-05-14T02:51:52;3.03;;;2.70;;
43042;SDS011;28667;50.758;6.096;2023-05-14T02:54:20;3.97;;;3.60;;
43042;SDS011;28667;50.758;6.096;2023-05-14T02:56:46;4.43;;;3.38;;
43042;SDS011;28667;50.758;6.096;2023-05-14T02:59:12;5.70;;;3.72;;
43042;SDS011;28667;50.758;6.096;2023-05-14T03:01:38;4.28;;;3.80;;
43042;SDS011;28667;50.758;6.096;2023-05-14T03:04:04;3.65;;;3.30;;
43042;SDS011;28667;50.758;6.096;2023-05-14T03:06:29;3.80;;;3.50;;
43042;SDS011;28667;50.758;6.096;2023-05-14T03:08:56;3.17;;;2.83;;
43042;SDS011;28667;50.758;6.096;2023-05-14T03:11:21;5.05;;;3.20;;
43042;SDS011;28667;50.758;6.096;2023-05-14T03:13:47;4.80;;;3.70;;
43042;SDS011;28667;50.758;6.096;2023-05-14T03:16:13;4.25;;;3.22;;
43042;SDS011;28667;50.758;6.096;2023-05-14T03:18:38;6.82;;;4.45;;
43042;SDS011;28667;50.758;6.096;2023-05-14T03:21:07;3.05;;;2.85;;
43042;SDS011;28667;50.758;6.096;2023-05-14T03:23:33;7.63;;;3.75;;
43042;SDS011;28667;50.758;6.096;2023-05-14T03:25:59;4.10;;;3.40;;
43042;SDS011;28667;50.758;6.096;2023-05-14T03:28:26;8.43;;;3.65;;
43042;SDS011;28667;50.758;6.096;2023-05-14T03:30:51;6.03;;;3.45;;
43042;SDS011;28667;50.758;6.096;2023-05-14T03:33:17;3.80;;;3.40;;
43042;SDS011;28667;50.758;6.096;2023-05-14T03:35:43;3.83;;;3.40;;
43042;SDS011;28667;50.758;6.096;2023-05-14T03:38:09;4.30;;;3.90;;
43042;SDS011;28667;50.758;6.096;2023-05-14T03:40:34;4.03;;;3.45;;
43042;SDS011;28667;50.758;6.096;2023-05-14T03:43:00;5.45;;;4.03;;
43042;SDS011;28667;50.758;6.096;2023-05-14T03:45:26;9.75;;;3.72;;
43042;SDS011;28667;50.758;6.096;2023-05-14T03:47:57;4.20;;;3.03;;
43042;SDS011;28667;50.758;6.096;2023-05-14T03:50:23;6.05;;;3.85;;
43042;SDS011;28667;50.758;6.096;2023-05-14T03:52:50;9.82;;;3.50;;
43042;SDS011;28667;50.758;6.096;2023-05-14T03:55:18;3.83;;;3.25;;
43042;SDS011;28667;50.758;6.096;2023-05-14T03:57:44;3.95;;;3.17;;
43042;SDS011;28667;50.758;6.096;2023-05-14T04:00:11;4.28;;;3.30;;
43042;SDS011;28667;50.758;6.096;2023-05-14T04:02:43;8.10;;;3.78;;
43042;SDS011;28667;50.758;6.096;2023-05-14T04:05:09;4.20;;;3.55;;
43042;SDS011;28667;50.758;6.096;2023-05-14T04:07:34;4.15;;;3.20;;
43042;SDS011;28667;50.758;6.096;2023-05-14T04:10:01;5.03;;;3.78;;
43042;SDS011;28667;50.758;6.096;2023-05-14T04:12:28;4.30;;;3.63;;
43042;SDS011;28667;50.758;6.096;2023-05-14T04:14:55;6.82;;;3.25;;
43042;SDS011;28667;50.758;6.096;2023-05-14T04:17:22;5.90;;;4.22;;
43042;SDS011;28667;50.758;6.096;2023-05-14T04:19:47;5.22;;;3.50;;
43042;SDS011;28667;50.758;6.096;2023-05-14T04:22:13;4.25;;;3.38;;
43042;SDS011;28667;50.758;6.096;2023-05-14T04:24:39;5.63;;;3.70;;
43042;SDS011;28667;50.758;6.096;2023-05-14T04:27:04;4.20;;;3.50;;
43042;SDS011;28667;50.758;6.096;2023-05-14T04:29:31;4.03;;;3.28;;
43042;SDS011;28667;50.758;6.096;2023-05-14T04:31:56;6.22;;;4.10;;
43042;SDS011;28667;50.758;6.096;2023-05-14T04:34:22;3.47;;;3.13;;
43042;SDS011;28667;50.758;6.096;2023-05-14T04:36:48;4.53;;;3.70;;
43042;SDS011;28667;50.758;6.096;2023-05-14T04:39:14;4.10;;;3.70;;
43042;SDS011;28667;50.758;6.096;2023-05-14T04:41:39;4.03;;;3.50;;
43042;SDS011;28667;50.758;6.096;2023-05-14T04:44:05;3.58;;;3.08;;
43042;SDS011;28667;50.758;6.096;2023-05-14T04:46:31;3.47;;;3.17;;
43042;SDS011;28667;50.758;6.096;2023-05-14T04:48:57;3.88;;;3.03;;
43042;SDS011;28667;50.758;6.096;2023-05-14T04:51:22;5.13;;;3.53;;
43042;SDS011;28667;50.758;6.096;2023-05-14T04:53:48;6.40;;;3.67;;
43042;SDS011;28667;50.758;6.096;2023-05-14T04:56:14;4.70;;;3.85;;
43042;SDS011;28667;50.758;6.096;2023-05-14T04:58:40;4.30;;;3.75;;
43042;SDS011;28667;50.758;6.096;2023-05-14T05:01:05;6.38;;;3.95;;
43042;SDS011;28667;50.758;6.096;2023-05-14T05:03:31;4.40;;;3.70;;
43042;SDS011;28667;50.758;6.096;2023-05-14T05:05:57;3.45;;;3.03;;
43042;SDS011;28667;50.758;6.096;2023-05-14T05:08:23;6.13;;;3.85;;
43042;SDS011;28667;50.758;6.096;2023-05-14T05:10:48;3.78;;;2.88;;
43042;SDS011;28667;50.758;6.096;2023-05-14T05:13:14;3.08;;;2.78;;
43042;SDS011;28667;50.758;6.096;2023-05-14T05:15:41;3.22;;;2.92;;
43042;SDS011;28667;50.758;6.096;2023-05-14T05:18:07;4.15;;;3.50;;
43042;SDS011;28667;50.758;6.096;2023-05-14T05:20:33;2.85;;;2.55;;
43042;SDS011;28667;50.758;6.096;2023-05-14T05:22:59;3.00;;;2.78;;
43042;SDS011;28667;50.758;6.096;2023-05-14T05:25:25;2.90;;;2.70;;
43042;SDS011;28667;50.758;6.096;2023-05-14T05:27:51;4.88;;;3.47;;
43042;SDS011;28667;50.758;6.096;2023-05-14T05:30:17;3.30;;;2.90;;
43042;SDS011;28667;50.758;6.096;2023-05-14T05:32:43;6.30;;;3.80;;
43042;SDS011;28667;50.758;6.096;2023-05-14T05:35:09;4.93;;;3.13;;
43042;SDS011;28667;50.758;6.096;2023-05-14T05:37:35;3.10;;;2.70;;
43042;SDS011;28667;50.758;6.096;2023-05-14T05:40:00;4.15;;;2.85;;
43042;SDS011;28667;50.758;6.096;2023-05-14T05:42:26;4.78;;;3.75;;
43042;SDS011;28667;50.758;6.096;2023-05-14T05:44:52;6.30;;;4.25;;
43042;SDS011;28667;50.758;6.096;2023-05-14T05:47:18;9.27;;;4.80;;
43042;SDS011;28667;50.758;6.096;2023-05-14T05:49:43;8.68;;;5.88;;
43042;SDS011;28667;50.758;6.096;2023-05-14T05:52:09;8.07;;;5.10;;
43042;SDS011;28667;50.758;6.096;2023-05-14T05:54:35;6.07;;;4.03;;
43042;SDS011;28667;50.758;6.096;2023-05-14T05:57:00;5.35;;;4.03;;
43042;SDS011;28667;50.758;6.096;2023-05-14T05:59:26;8.20;;;5.30;;
43042;SDS011;28667;50.758;6.096;2023-05-14T06:01:52;7.63;;;5.15;;
43042;SDS011;28667;50.758;6.096;2023-05-14T06:04:18;9.73;;;6.30;;
43042;SDS011;28667;50.758;6.096;2023-05-14T06:06:44;9.65;;;7.53;;
43042;SDS011;28667;50.758;6.096;2023-05-14T06:09:10;12.98;;;8.20;;
43042;SDS011;28667;50.758;6.096;2023-05-14T06:11:35;13.35;;;7.85;;
43042;SDS011;28667;50.758;6.096;2023-05-14T06:14:01;11.43;;;6.82;;
43042;SDS011;28667;50.758;6.096;2023-05-14T06:16:27;9.00;;;6.10;;
43042;SDS011;28667;50.758;6.096;2023-05-14T06:18:52;7.35;;;4.97;;
43042;SDS011;28667;50.758;6.096;2023-05-14T06:21:19;7.82;;;5.28;;
43042;SDS011;28667;50.758;6.096;2023-05-14T06:23:45;6.45;;;4.80;;
43042;SDS011;28667;50.758;6.096;2023-05-14T06:26:11;9.48;;;6.35;;
43042;SDS011;28667;50.758;6.096;2023-05-14T06:28:37;10.43;;;6.55;;
43042;SDS011;28667;50.758;6.096;2023-05-14T06:31:02;11.25;;;6.68;;
43042;SDS011;28667;50.758;6.096;2023-05-14T06:33:28;10.60;;;5.30;;
43042;SDS011;28667;50.758;6.096;2023-05-14T06:35:58;17.23;;;8.32;;
43042;SDS011;28667;50.758;6.096;2023-05-14T06:38:25;12.98;;;6.70;;
43042;SDS011;28667;50.758;6.096;2023-05-14T06:40:51;10.48;;;7.75;;
43042;SDS011;28667;50.758;6.096;2023-05-14T06:43:20;8.52;;;5.50;;
43042;SDS011;28667;50.758;6.096;2023-05-14T06:45:52;8.15;;;6.30;;
43042;SDS011;28667;50.758;6.096;2023-05-14T06:48:18;8.80;;;6.32;;
43042;SDS011;28667;50.758;6.096;2023-05-14T06:50:44;10.05;;;6.80;;
43042;SDS011;28667;50.758;6.096;2023-05-14T06:53:11;8.52;;;5.82;;
43042;SDS011;28667;50.758;6.096;2023-05-14T06:55:37;11.05;;;7.22;;
43042;SDS011;28667;50.758;6.096;2023-05-14T06:58:07;9.63;;;6.22;;
43042;SDS011;28667;50.758;6.096;2023-05-14T07:00:33;11.02;;;7.55;;
43042;SDS011;28667;50.758;6.096;2023-05-14T07:02:58;15.10;;;8.15;;
43042;SDS011;28667;50.758;6.096;2023-05-14T07:05:24;16.02;;;8.95;;
43042;SDS011;28667;50.758;6.096;2023-05-14T07:07:50;14.35;;;8.93;;
43042;SDS011;28667;50.758;6.096;2023-05-14T07:10:16;11.10;;;8.23;;
43042;SDS011;28667;50.758;6.096;2023-05-14T07:12:42;14.50;;;8.35;;
43042;SDS011;28667;50.758;6.096;2023-05-14T07:15:08;12.95;;;7.53;;
43042;SDS011;28667;50.758;6.096;2023-05-14T07:17:34;15.77;;;8.32;;
43042;SDS011;28667;50.758;6.096;2023-05-14T07:20:00;15.90;;;9.23;;
43042;SDS011;28667;50.758;6.096;2023-05-14T07:22:26;15.57;;;9.00;;
43042;SDS011;28667;50.758;6.096;2023-05-14T07:24:51;20.23;;;10.07;;
43042;SDS011;28667;50.758;6.096;2023-05-14T07:27:17;12.10;;;8.10;;
43042;SDS011;28667;50.758;6.096;2023-05-14T07:29:43;11.07;;;7.13;;
43042;SDS011;28667;50.758;6.096;2023-05-14T07:32:09;12.88;;;7.40;;
43042;SDS011;28667;50.758;6.096;2023-05-14T07:34:34;17.67;;;10.60;;
43042;SDS011;28667;50.758;6.096;2023-05-14T07:37:00;20.67;;;11.00;;
43042;SDS011;28667;50.758;6.096;2023-05-14T07:39:26;19.10;;;8.45;;
43042;SDS011;28667;50.758;6.096;2023-05-14T07:41:52;22.05;;;10.98;;
43042;SDS011;28667;50.758;6.096;2023-05-14T07:44:19;24.73;;;12.25;;
43042;SDS011;28667;50.758;6.096;2023-05-14T07:46:45;20.73;;;11.95;;
43042;SDS011;28667;50.758;6.096;2023-05-14T07:49:11;19.92;;;11.55;;
43042;SDS011;28667;50.758;6.096;2023-05-14T07:51:37;25.83;;;12.90;;
43042;SDS011;28667;50.758;6.096;2023-05-14T07:54:03;20.50;;;11.07;;
43042;SDS011;28667;50.758;6.096;2023-05-14T07:56:29;30.35;;;14.57;;
43042;SDS011;28667;50.758;6.096;2023-05-14T07:58:55;28.25;;;14.30;;
43042;SDS011;28667;50.758;6.096;2023-05-14T08:01:21;32.45;;;14.48;;
43042;SDS011;28667;50.758;6.096;2023-05-14T08:03:47;30.85;;;14.52;;
43042;SDS011;28667;50.758;6.096;2023-05-14T08:06:12;30.75;;;14.65;;
43042;SDS011;28667;50.758;6.096;2023-05-14T08:08:38;29.05;;;14.07;;
43042;SDS011;28667;50.758;6.096;2023-05-14T08:11:04;25.10;;;12.50;;
43042;SDS011;28667;50.758;6.096;2023-05-14T08:13:30;35.30;;;15.43;;
43042;SDS011;28667;50.758;6.096;2023-05-14T08:15:56;33.30;;;16.13;;
43042;SDS011;28667;50.758;6.096;2023-05-14T08:18:22;28.90;;;13.82;;
43042;SDS011;28667;50.758;6.096;2023-05-14T08:20:47;27.75;;;15.02;;
43042;SDS011;28667;50.758;6.096;2023-05-14T08:23:13;34.83;;;15.98;;
43042;SDS011;28667;50.758;6.096;2023-05-14T08:25:39;30.90;;;14.45;;
43042;SDS011;28667;50.758;6.096;2023-05-14T08:28:05;33.25;;;14.90;;
43042;SDS011;28667;50.758;6.096;2023-05-14T08:30:32;32.13;;;16.27;;
43042;SDS011;28667;50.758;6.096;2023-05-14T08:32:57;26.13;;;12.98;;
43042;SDS011;28667;50.758;6.096;2023-05-14T08:35:23;41.72;;;16.30;;
43042;SDS011;28667;50.758;6.096;2023-05-14T08:37:49;35.90;;;19.23;;
43042;SDS011;28667;50.758;6.096;2023-05-14T08:40:16;40.97;;;17.27;;
43042;SDS011;28667;50.758;6.096;2023-05-14T08:42:42;30.67;;;14.15;;
43042;SDS011;28667;50.758;6.096;2023-05-14T08:45:19;24.20;;;12.32;;
43042;SDS011;28667;50.758;6.096;2023-05-14T08:47:49;37.05;;;17.92;;
43042;SDS011;28667;50.758;6.096;2023-05-14T08:50:16;33.72;;;18.25;;
43042;SDS011;28667;50.758;6.096;2023-05-14T08:52:43;41.65;;;18.85;;
43042;SDS011;28667;50.758;6.096;2023-05-14T08:55:10;34.72;;;17.38;;
43042;SDS011;28667;50.758;6.096;2023-05-14T08:57:37;39.53;;;19.77;;
43042;SDS011;28667;50.758;6.096;2023-05-14T09:00:03;36.28;;;17.80;;
43042;SDS011;28667;50.758;6.096;2023-05-14T09:02:33;36.58;;;19.00;;
43042;SDS011;28667;50.758;6.096;2023-05-14T09:05:01;30.23;;;15.77;;
43042;SDS011;28667;50.758;6.096;2023-05-14T09:07:28;44.00;;;20.90;;
43042;SDS011;28667;50.758;6.096;2023-05-14T09:09:54;35.83;;;19.33;;
43042;SDS011;28667;50.758;6.096;2023-05-14T09:12:20;32.45;;;17.58;;
43042;SDS011;28667;50.758;6.096;2023-05-14T09:14:47;33.90;;;18.58;;
43042;SDS011;28667;50.758;6.096;2023-05-14T09:17:13;33.35;;;18.63;;
43042;SDS011;28667;50.758;6.096;2023-05-14T09:19:39;39.90;;;19.33;;
43042;SDS011;28667;50.758;6.096;2023-05-14T09:22:10;37.72;;;20.25;;
43042;SDS011;28667;50.758;6.096;2023-05-14T09:24:37;37.20;;;19.63;;
43042;SDS011;28667;50.758;6.096;2023-05-14T09:27:04;30.60;;;16.98;;
43042;SDS011;28667;50.758;6.096;2023-05-14T09:29:30;25.30;;;14.13;;
43042;SDS011;28667;50.758;6.096;2023-05-14T09:31:58;40.10;;;19.73;;
43042;SDS011;28667;50.758;6.096;2023-05-14T09:34:32;34.22;;;18.65;;
43042;SDS011;28667;50.758;6.096;2023-05-14T09:37:00;40.10;;;18.73;;
43042;SDS011;28667;50.758;6.096;2023-05-14T09:39:30;35.72;;;18.45;;
43042;SDS011;28667;50.758;6.096;2023-05-14T09:41:57;39.28;;;20.70;;
43042;SDS011;28667;50.758;6.096;2023-05-14T09:44:23;41.08;;;19.75;;
43042;SDS011;28667;50.758;6.096;2023-05-14T09:46:49;33.67;;;18.55;;
43042;SDS011;28667;50.758;6.096;2023-05-14T09:49:16;33.72;;;17.60;;
43042;SDS011;28667;50.758;6.096;2023-05-14T09:51:41;38.25;;;19.48;;
43042;SDS011;28667;50.758;6.096;2023-05-14T09:54:07;38.28;;;20.08;;
43042;SDS011;28667;50.758;6.096;2023-05-14T09:56:34;38.97;;;19.75;;
43042;SDS011;28667;50.758;6.096;2023-05-14T09:59:01;34.38;;;19.05;;
43042;SDS011;28667;50.758;6.096;2023-05-14T10:01:28;38.63;;;18.75;;
43042;SDS011;28667;50.758;6.096;2023-05-14T10:03:54;30.52;;;16.60;;
43042;SDS011;28667;50.758;6.096;2023-05-14T10:06:22;36.38;;;18.80;;
43042;SDS011;28667;50.758;6.096;2023-05-14T10:08:52;37.60;;;18.90;;
43042;SDS011;28667;50.758;6.096;2023-05-14T10:11:21;36.30;;;19.67;;
43042;SDS011;28667;50.758;6.096;2023-05-14T10:14:53;36.78;;;18.30;;
43042;SDS011;28667;50.758;6.096;2023-05-14T10:17:07;31.50;;;15.90;;
43042;SDS011;28667;50.758;6.096;2023-05-14T10:22:11;33.75;;;17.20;;
43042;SDS011;28667;50.758;6.096;2023-05-14T10:24:42;28.92;;;16.15;;
43042;SDS011;28667;50.758;6.096;2023-05-14T10:27:08;31.83;;;16.95;;
43042;SDS011;28667;50.758;6.096;2023-05-14T10:29:34;33.85;;;19.17;;
43042;SDS011;28667;50.758;6.096;2023-05-14T10:32:05;38.22;;;18.52;;
43042;SDS011;28667;50.758;6.096;2023-05-14T10:39:39;37.63;;;18.70;;
43042;SDS011;28667;50.758;6.096;2023-05-14T10:42:09;32.83;;;17.48;;
43042;SDS011;28667;50.758;6.096;2023-05-14T10:44:38;27.23;;;16.50;;
43042;SDS011;28667;50.758;6.096;2023-05-14T10:47:10;37.00;;;19.77;;
43042;SDS011;28667;50.758;6.096;2023-05-14T10:49:36;33.85;;;18.60;;
43042;SDS011;28667;50.758;6.096;2023-05-14T10:52:02;34.63;;;18.30;;
43042;SDS011;28667;50.758;6.096;2023-05-14T10:54:27;35.50;;;17.95;;
43042;SDS011;28667;50.758;6.096;2023-05-14T10:56:53;33.55;;;17.83;;
43042;SDS011;28667;50.758;6.096;2023-05-14T10:59:26;34.97;;;16.40;;
43042;SDS011;28667;50.758;6.096;2023-05-14T11:01:52;31.58;;;17.13;;
43042;SDS011;28667;50.758;6.096;2023-05-14T11:04:18;32.20;;;15.95;;
43042;SDS011;28667;50.758;6.096;2023-05-14T11:06:47;30.55;;;15.07;;
43042;SDS011;28667;50.758;6.096;2023-05-14T11:09:15;30.48;;;16.77;;
43042;SDS011;28667;50.758;6.096;2023-05-14T11:11:42;31.65;;;17.08;;
43042;SDS011;28667;50.758;6.096;2023-05-14T11:14:08;27.83;;;14.13;;
43042;SDS011;28667;50.758;6.096;2023-05-14T11:16:34;31.63;;;16.40;;
43042;SDS011;28667;50.758;6.096;2023-05-14T11:19:02;33.05;;;17.83;;
43042;SDS011;28667;50.758;6.096;2023-05-14T11:21:29;31.25;;;17.23;;
43042;SDS011;28667;50.758;6.096;2023-05-14T11:23:56;24.73;;;13.27;;
43042;SDS011;28667;50.758;6.096;2023-05-14T11:26:24;24.23;;;14.13;;
43042;SDS011;28667;50.758;6.096;2023-05-14T11:28:50;30.17;;;16.00;;
43042;SDS011;28667;50.758;6.096;2023-05-14T11:31:16;24.77;;;14.73;;
43042;SDS011;28667;50.758;6.096;2023-05-14T11:33:42;32.17;;;17.50;;
43042;SDS011;28667;50.758;6.096;2023-05-14T11:36:11;25.70;;;15.20;;
43042;SDS011;28667;50.758;6.096;2023-05-14T11:38:47;28.85;;;16.27;;
43042;SDS011;28667;50.758;6.096;2023-05-14T11:41:13;34.08;;;16.63;;
43042;SDS011;28667;50.758;6.096;2023-05-14T11:43:40;19.50;;;13.10;;
43042;SDS011;28667;50.758;6.096;2023-05-14T11:46:06;20.48;;;13.00;;
43042;SDS011;28667;50.758;6.096;2023-05-14T11:48:32;20.52;;;13.25;;
43042;SDS011;28667;50.758;6.096;2023-05-14T11:50:58;21.60;;;13.48;;
43042;SDS011;28667;50.758;6.096;2023-05-14T11:53:24;15.82;;;10.15;;
43042;SDS011;28667;50.758;6.096;2023-05-14T11:55:51;24.60;;;13.95;;
43042;SDS011;28667;50.758;6.096;2023-05-14T11:58:18;26.67;;;13.52;;
43042;SDS011;28667;50.758;6.096;2023-05-14T12:00:45;21.90;;;12.27;;
43042;SDS011;28667;50.758;6.096;2023-05-14T12:03:13;22.65;;;12.45;;
43042;SDS011;28667;50.758;6.096;2023-05-14T12:05:39;16.95;;;10.93;;
43042;SDS011;28667;50.758;6.096;2023-05-14T12:08:26;20.05;;;12.00;;
43042;SDS011;28667;50.758;6.096;2023-05-14T12:10:52;20.85;;;12.57;;
43042;SDS011;28667;50.758;6.096;2023-05-14T12:13:18;15.40;;;9.65;;
43042;SDS011;28667;50.758;6.096;2023-05-14T12:15:45;19.15;;;11.15;;
43042;SDS011;28667;50.758;6.096;2023-05-14T12:18:23;22.67;;;12.63;;
43042;SDS011;28667;50.758;6.096;2023-05-14T12:20:50;20.58;;;12.98;;
43042;SDS011;28667;50.758;6.096;2023-05-14T12:23:23;19.75;;;10.93;;
43042;SDS011;28667;50.758;6.096;2023-05-14T12:25:51;15.13;;;9.73;;
43042;SDS011;28667;50.758;6.096;2023-05-14T12:28:17;17.98;;;10.25;;
43042;SDS011;28667;50.758;6.096;2023-05-14T12:30:46;13.93;;;9.05;;
43042;SDS011;28667;50.758;6.096;2023-05-14T12:33:13;15.43;;;8.93;;
43042;SDS011;28667;50.758;6.096;2023-05-14T12:35:39;15.38;;;9.23;;
43042;SDS011;28667;50.758;6.096;2023-05-14T12:38:05;14.20;;;7.75;;
43042;SDS011;28667;50.758;6.096;2023-05-14T12:40:31;11.10;;;7.88;;
43042;SDS011;28667;50.758;6.096;2023-05-14T12:42:56;17.63;;;11.73;;
43042;SDS011;28667;50.758;6.096;2023-05-14T12:45:22;12.60;;;8.48;;
43042;SDS011;28667;50.758;6.096;2023-05-14T12:47:48;16.23;;;10.65;;
43042;SDS011;28667;50.758;6.096;2023-05-14T12:50:14;15.52;;;10.55;;
43042;SDS011;28667;50.758;6.096;2023-05-14T12:52:40;17.15;;;9.32;;
43042;SDS011;28667;50.758;6.096;2023-05-14T12:55:06;12.23;;;7.75;;
43042;SDS011;28667;50.758;6.096;2023-05-14T12:57:33;12.38;;;8.77;;
43042;SDS011;28667;50.758;6.096;2023-05-14T12:59:59;11.65;;;8.85;;
43042;SDS011;28667;50.758;6.096;2023-05-14T13:02:25;10.52;;;8.05;;
43042;SDS011;28667;50.758;6.096;2023-05-14T13:04:51;8.30;;;6.50;;
43042;SDS011;28667;50.758;6.096;2023-05-14T13:07:17;9.23;;;6.93;;
43042;SDS011;28667;50.758;6.096;2023-05-14T13:09:42;13.07;;;8.52;;
43042;SDS011;28667;50.758;6.096;2023-05-14T13:12:08;9.35;;;7.00;;
43042;SDS011;28667;50.758;6.096;2023-05-14T13:14:34;10.30;;;8.70;;
43042;SDS011;28667;50.758;6.096;2023-05-14T13:17:00;8.85;;;6.72;;
43042;SDS011;28667;50.758;6.096;2023-05-14T13:19:26;8.02;;;6.00;;
43042;SDS011;28667;50.758;6.096;2023-05-14T13:21:52;8.07;;;5.43;;
43042;SDS011;28667;50.758;6.096;2023-05-14T13:24:18;5.15;;;3.80;;
43042;SDS011;28667;50.758;6.096;2023-05-14T13:26:44;3.53;;;3.22;;
43042;SDS011;28667;50.758;6.096;2023-05-14T13:29:09;4.95;;;3.95;;
43042;SDS011;28667;50.758;6.096;2023-05-14T13:31:35;7.32;;;4.25;;
43042;SDS011;28667;50.758;6.096;2023-05-14T13:34:01;7.10;;;6.03;;
43042;SDS011;28667;50.758;6.096;2023-05-14T13:36:27;7.85;;;6.40;;
43042;SDS011;28667;50.758;6.096;2023-05-14T13:38:53;10.10;;;7.22;;
43042;SDS011;28667;50.758;6.096;2023-05-14T13:41:18;9.45;;;7.50;;
43042;SDS011;28667;50.758;6.096;2023-05-14T13:43:45;8.82;;;6.18;;
43042;SDS011;28667;50.758;6.096;2023-05-14T13:46:11;10.52;;;8.02;;
43042;SDS011;28667;50.758;6.096;2023-05-14T13:48:37;10.02;;;6.55;;
43042;SDS011;28667;50.758;6.096;2023-05-14T13:51:02;6.35;;;5.22;;
43042;SDS011;28667;50.758;6.096;2023-05-14T13:53:28;9.77;;;7.22;;
43042;SDS011;28667;50.758;6.096;2023-05-14T13:55:54;9.80;;;7.00;;
43042;SDS011;28667;50.758;6.096;2023-05-14T13:58:22;9.68;;;6.65;;
43042;SDS011;28667;50.758;6.096;2023-05-14T14:00:49;9.75;;;6.18;;
43042;SDS011;28667;50.758;6.096;2023-05-14T14:03:16;5.97;;;5.22;;
43042;SDS011;28667;50.758;6.096;2023-05-14T14:05:41;6.57;;;5.60;;
43042;SDS011;28667;50.758;6.096;2023-05-14T14:08:07;6.80;;;5.53;;
43042;SDS011;28667;50.758;6.096;2023-05-14T14:10:33;7.45;;;5.95;;
43042;SDS011;28667;50.758;6.096;2023-05-14T14:12:59;6.50;;;5.28;;
43042;SDS011;28667;50.758;6.096;2023-05-14T14:15:25;4.97;;;4.55;;
43042;SDS011;28667;50.758;6.096;2023-05-14T14:17:50;6.65;;;5.35;;
43042;SDS011;28667;50.758;6.096;2023-05-14T14:20:16;5.00;;;4.50;;
43042;SDS011;28667;50.758;6.096;2023-05-14T14:22:42;5.28;;;4.43;;
43042;SDS011;28667;50.758;6.096;2023-05-14T14:25:09;10.65;;;4.40;;
43042;SDS011;28667;50.758;6.096;2023-05-14T14:27:36;4.18;;;3.83;;
43042;SDS011;28667;50.758;6.096;2023-05-14T14:30:09;4.55;;;4.15;;
43042;SDS011;28667;50.758;6.096;2023-05-14T14:32:43;5.82;;;3.92;;
43042;SDS011;28667;50.758;6.096;2023-05-14T14:35:13;5.50;;;3.92;;
43042;SDS011;28667;50.758;6.096;2023-05-14T14:37:41;5.82;;;4.03;;
43042;SDS011;28667;50.758;6.096;2023-05-14T14:40:09;4.55;;;3.95;;
43042;SDS011;28667;50.758;6.096;2023-05-14T14:42:36;6.15;;;3.97;;
43042;SDS011;28667;50.758;6.096;2023-05-14T14:45:05;5.13;;;4.13;;
43042;SDS011;28667;50.758;6.096;2023-05-14T14:47:31;4.13;;;3.72;;
43042;SDS011;28667;50.758;6.096;2023-05-14T14:49:57;3.60;;;3.30;;
43042;SDS011;28667;50.758;6.096;2023-05-14T14:52:23;5.18;;;3.00;;